createdAt,value
2018-09-25T00:00:01.326Z,99.90
2018-09-25T00:02:35.517Z,99.90
2018-09-25T00:05:09.904Z,99.90
2018-09-25T00:07:44.169Z,99.90
2018-09-25T00:10:18.438Z,99.90
2018-09-25T00:12:52.624Z,99.90
2018-09-25T00:15:26.818Z,99.90
2018-09-25T00:18:01.110Z,99.90
2018-09-25T00:20:35.338Z,99.90
2018-09-25T00:23:09.877Z,99.90
2018-09-25T00:25:44.081Z,99.90
2018-09-25T00:28:18.424Z,99.90
2018-09-25T00:30:52.650Z,99.90
2018-09-25T00:33:26.894Z,99.90
2018-09-25T00:36:01.225Z,99.90
2018-09-25T00:38:35.282Z,99.90
2018-09-25T00:41:09.579Z,99.90
2018-09-25T00:43:43.676Z,99.90
2018-09-25T00:46:17.891Z,99.90
2018-09-25T00:48:52.261Z,99.90
2018-09-25T00:51:26.603Z,99.90
2018-09-25T00:54:00.642Z,99.90
2018-09-25T00:56:34.744Z,99.90
2018-09-25T00:59:08.971Z,99.90
2018-09-25T01:01:43.173Z,99.90
2018-09-25T01:04:17.446Z,99.90
2018-09-25T01:06:51.623Z,99.90
2018-09-25T01:09:25.782Z,99.90
2018-09-25T01:12:00.093Z,99.90
2018-09-25T01:14:34.278Z,99.90
2018-09-25T01:17:08.578Z,99.90
2018-09-25T01:19:43.049Z,99.90
2018-09-25T01:22:17.117Z,99.90
2018-09-25T01:24:51.380Z,99.90
2018-09-25T01:27:25.528Z,99.90
2018-09-25T01:29:59.918Z,99.90
2018-09-25T01:32:34.569Z,99.90
2018-09-25T01:35:08.650Z,99.90
2018-09-25T01:37:42.956Z,99.90
2018-09-25T01:40:17.439Z,99.90
2018-09-25T01:42:51.653Z,99.90
2018-09-25T01:45:25.829Z,99.90
2018-09-25T01:48:00.186Z,99.90
2018-09-25T01:50:34.449Z,99.90
2018-09-25T01:53:08.610Z,99.90
2018-09-25T01:55:42.825Z,99.90
2018-09-25T01:58:17.237Z,99.90
2018-09-25T02:00:51.351Z,99.90
2018-09-25T02:03:25.677Z,99.90
2018-09-25T02:05:59.969Z,99.90
2018-09-25T02:08:34.261Z,99.90
2018-09-25T02:11:08.602Z,99.90
2018-09-25T02:13:42.653Z,99.90
2018-09-25T02:16:16.833Z,99.90
2018-09-25T02:18:51.122Z,99.90
2018-09-25T02:21:25.197Z,99.90
2018-09-25T02:23:59.598Z,99.90
2018-09-25T02:26:33.726Z,99.90
2018-09-25T02:29:08.077Z,99.90
2018-09-25T02:31:42.380Z,99.90
2018-09-25T02:34:16.583Z,99.90
2018-09-25T02:36:50.797Z,99.90
2018-09-25T02:39:25.046Z,99.90
2018-09-25T02:41:59.644Z,99.90
2018-09-25T02:44:34.028Z,99.90
2018-09-25T02:47:08.332Z,99.90
2018-09-25T02:49:42.617Z,99.90
2018-09-25T02:52:16.927Z,99.90
2018-09-25T02:54:51.179Z,99.90
2018-09-25T02:57:31.913Z,99.90
2018-09-25T03:00:06.276Z,99.90
2018-09-25T03:02:40.554Z,99.90
2018-09-25T03:05:14.720Z,99.90
2018-09-25T03:07:49.005Z,99.90
2018-09-25T03:10:23.253Z,99.90
2018-09-25T03:12:57.333Z,99.90
2018-09-25T03:15:31.924Z,99.90
2018-09-25T03:18:06.106Z,99.90
2018-09-25T03:20:40.567Z,99.90
2018-09-25T03:23:15.242Z,99.90
2018-09-25T03:25:49.490Z,99.90
2018-09-25T03:28:23.794Z,99.90
2018-09-25T03:30:58.148Z,99.90
2018-09-25T03:33:32.376Z,99.90
2018-09-25T03:36:06.733Z,99.90
2018-09-25T03:38:41.041Z,99.90
2018-09-25T03:41:15.155Z,99.90
2018-09-25T03:43:49.496Z,99.90
2018-09-25T03:46:24.025Z,99.90
2018-09-25T03:48:58.486Z,99.90
2018-09-25T03:51:32.972Z,99.90
2018-09-25T03:54:07.293Z,99.90
2018-09-25T03:56:41.825Z,99.90
2018-09-25T03:59:15.818Z,99.90
2018-09-25T04:01:50.202Z,99.90
2018-09-25T04:04:24.447Z,99.90
2018-09-25T04:06:58.798Z,99.90
2018-09-25T04:09:33.031Z,99.90
2018-09-25T04:12:07.317Z,99.90
2018-09-25T04:14:41.600Z,99.90
2018-09-25T04:17:15.972Z,99.90
2018-09-25T04:19:50.258Z,99.90
2018-09-25T04:22:24.267Z,99.90
2018-09-25T04:24:58.493Z,99.90
2018-09-25T04:27:32.647Z,99.90
2018-09-25T04:30:06.766Z,99.90
2018-09-25T04:32:40.850Z,99.90
2018-09-25T04:35:15.412Z,99.90
2018-09-25T04:37:49.429Z,99.90
2018-09-25T04:40:23.734Z,99.90
2018-09-25T04:42:58.028Z,99.90
2018-09-25T04:45:32.247Z,99.90
2018-09-25T04:48:06.252Z,99.90
2018-09-25T04:50:40.450Z,99.90
2018-09-25T04:53:14.802Z,99.90
2018-09-25T04:55:52.057Z,99.90
2018-09-25T04:58:26.134Z,99.90
2018-09-25T05:01:00.379Z,99.90
2018-09-25T05:03:35.697Z,99.90
2018-09-25T05:06:09.892Z,99.90
2018-09-25T05:08:44.184Z,99.90
2018-09-25T05:11:18.534Z,99.90
2018-09-25T05:13:52.789Z,99.90
2018-09-25T05:16:27.154Z,99.90
2018-09-25T05:19:01.285Z,99.90
2018-09-25T05:21:35.597Z,99.90
2018-09-25T05:24:09.831Z,99.90
2018-09-25T05:26:44.184Z,99.90
2018-09-25T05:29:18.453Z,99.90
2018-09-25T05:31:52.527Z,99.90
2018-09-25T05:34:26.566Z,99.90
2018-09-25T05:37:00.893Z,99.90
2018-09-25T05:39:34.972Z,99.90
2018-09-25T05:42:09.209Z,99.90
2018-09-25T05:44:43.474Z,99.90
2018-09-25T05:47:17.671Z,99.90
2018-09-25T05:49:51.797Z,99.90
2018-09-25T05:52:26.164Z,99.90
2018-09-25T05:55:00.425Z,99.90
2018-09-25T05:57:34.683Z,99.90
2018-09-25T06:00:08.725Z,99.90
2018-09-25T06:02:43.240Z,99.90
2018-09-25T06:05:17.387Z,99.90
2018-09-25T06:07:51.643Z,99.90
2018-09-25T06:10:26.031Z,99.90
2018-09-25T06:13:00.242Z,99.90
2018-09-25T06:15:34.366Z,99.90
2018-09-25T06:18:08.922Z,99.90
2018-09-25T06:20:43.134Z,99.90
2018-09-25T06:23:17.250Z,99.90
2018-09-25T06:25:51.194Z,99.90
2018-09-25T06:28:26.318Z,99.90
2018-09-25T06:31:00.518Z,99.90
2018-09-25T06:33:34.753Z,99.90
2018-09-25T06:36:08.982Z,99.90
2018-09-25T06:38:43.328Z,99.90
2018-09-25T06:41:17.506Z,99.90
2018-09-25T06:43:51.907Z,99.90
2018-09-25T06:46:26.091Z,99.90
2018-09-25T06:49:00.320Z,99.90
2018-09-25T06:51:41.191Z,99.90
2018-09-25T06:54:15.430Z,99.90
2018-09-25T06:56:50.657Z,99.90
2018-09-25T06:59:25.057Z,99.90
2018-09-25T07:01:59.409Z,99.90
2018-09-25T07:04:33.526Z,99.90
2018-09-25T07:07:08.265Z,99.70
2018-09-25T07:09:42.304Z,99.00
2018-09-25T07:12:16.343Z,99.00
2018-09-25T07:14:50.585Z,99.30
2018-09-25T07:17:24.878Z,98.90
2018-09-25T07:19:58.817Z,98.50
2018-09-25T07:22:33.047Z,97.60
2018-09-25T07:25:07.313Z,97.40
2018-09-25T07:27:41.465Z,97.30
2018-09-25T07:30:15.670Z,97.30
2018-09-25T07:32:49.877Z,95.20
2018-09-25T07:35:24.127Z,92.30
2018-09-25T07:37:58.259Z,88.00
2018-09-25T07:40:32.992Z,81.10
2018-09-25T07:43:07.233Z,76.70
2018-09-25T07:45:41.398Z,78.00
2018-09-25T07:48:15.591Z,76.50
2018-09-25T07:50:50.921Z,71.00
2018-09-25T07:53:25.298Z,72.50
2018-09-25T07:55:59.439Z,73.00
2018-09-25T07:58:34.016Z,73.40
2018-09-25T08:01:09.563Z,73.70
2018-09-25T08:03:43.768Z,71.70
2018-09-25T08:06:17.899Z,68.50
2018-09-25T08:08:52.459Z,67.90
2018-09-25T08:11:27.002Z,64.00
2018-09-25T08:14:01.829Z,62.10
2018-09-25T08:16:36.171Z,66.60
2018-09-25T08:19:11.089Z,70.10
2018-09-25T08:21:46.470Z,67.20
2018-09-25T08:24:21.015Z,64.00
2018-09-25T08:26:55.519Z,64.60
2018-09-25T08:29:29.782Z,64.80
2018-09-25T08:32:04.261Z,63.80
2018-09-25T08:34:38.441Z,62.80
2018-09-25T08:37:12.757Z,65.30
2018-09-25T08:39:47.241Z,65.00
2018-09-25T08:42:21.349Z,64.70
2018-09-25T08:44:55.717Z,66.80
2018-09-25T08:47:30.537Z,66.60
2018-09-25T08:50:04.944Z,65.50
2018-09-25T08:52:39.322Z,66.20
2018-09-25T08:55:13.664Z,62.30
2018-09-25T08:57:47.997Z,60.70
2018-09-25T09:00:22.610Z,60.50
2018-09-25T09:02:56.817Z,61.00
2018-09-25T09:05:31.222Z,61.30
2018-09-25T09:08:05.281Z,61.00
2018-09-25T09:10:39.595Z,62.30
2018-09-25T09:13:13.747Z,61.00
2018-09-25T09:15:47.882Z,61.10
2018-09-25T09:18:22.143Z,64.70
2018-09-25T09:20:56.909Z,68.10
2018-09-25T09:23:31.123Z,70.90
2018-09-25T09:26:05.256Z,73.50
2018-09-25T09:28:39.586Z,71.60
2018-09-25T09:31:13.791Z,69.80
2018-09-25T09:33:48.174Z,72.70
2018-09-25T09:36:22.497Z,72.60
2018-09-25T09:38:56.934Z,71.40
2018-09-25T09:41:31.084Z,66.30
2018-09-25T09:44:05.929Z,61.20
2018-09-25T09:46:40.527Z,60.20
2018-09-25T09:49:21.653Z,61.00
2018-09-25T09:51:55.834Z,61.10
2018-09-25T09:54:29.874Z,56.40
2018-09-25T09:57:04.338Z,52.80
2018-09-25T09:59:39.589Z,51.50
2018-09-25T10:02:15.289Z,49.50
2018-09-25T10:04:50.992Z,47.50
2018-09-25T10:07:25.702Z,51.00
2018-09-25T10:09:59.836Z,51.80
2018-09-25T10:12:34.027Z,51.20
2018-09-25T10:15:08.216Z,51.50
2018-09-25T10:17:42.522Z,50.20
2018-09-25T10:23:06.857Z,53.00
2018-09-25T10:25:41.142Z,55.40
2018-09-25T10:28:15.255Z,60.30
2018-09-25T10:30:49.662Z,64.00
2018-09-25T10:33:25.333Z,63.60
2018-09-25T10:36:00.472Z,57.00
2018-09-25T10:38:34.869Z,56.10
2018-09-25T10:41:09.312Z,54.10
2018-09-25T10:43:43.509Z,53.40
2018-09-25T10:46:17.888Z,56.30
2018-09-25T10:48:52.090Z,54.40
2018-09-25T10:51:26.344Z,55.00
2018-09-25T10:54:00.517Z,54.60
2018-09-25T10:56:34.939Z,51.90
2018-09-25T10:59:09.141Z,55.70
2018-09-25T11:01:43.365Z,57.00
2018-09-25T11:04:17.725Z,58.40
2018-09-25T11:06:52.039Z,58.30
2018-09-25T11:09:26.385Z,56.20
2018-09-25T11:12:00.460Z,57.10
2018-09-25T11:14:35.297Z,59.70
2018-09-25T11:17:09.850Z,58.80
2018-09-25T11:19:44.120Z,58.00
2018-09-25T11:22:18.346Z,57.60
2018-09-25T11:24:52.523Z,58.60
2018-09-25T11:27:26.679Z,60.40
2018-09-25T11:30:01.035Z,62.30
2018-09-25T11:32:35.334Z,62.30
2018-09-25T11:35:10.697Z,60.70
2018-09-25T11:37:44.655Z,58.10
2018-09-25T11:40:19.817Z,54.30
2018-09-25T11:42:54.286Z,56.30
2018-09-25T11:45:30.327Z,57.90
2018-09-25T11:48:04.593Z,59.50
2018-09-25T11:50:39.150Z,59.00
2018-09-25T11:53:13.490Z,59.90
2018-09-25T11:55:48.017Z,60.10
2018-09-25T11:58:22.282Z,59.80
2018-09-25T12:00:57.820Z,59.50
2018-09-25T12:03:32.059Z,59.20
2018-09-25T12:06:06.513Z,59.80
2018-09-25T12:08:40.631Z,57.30
2018-09-25T12:11:14.841Z,57.40
2018-09-25T12:13:49.103Z,57.00
2018-09-25T12:16:23.333Z,57.70
2018-09-25T12:18:57.564Z,57.60
2018-09-25T12:21:31.834Z,57.60
2018-09-25T12:24:07.773Z,57.10
2018-09-25T12:26:42.049Z,56.40
2018-09-25T12:29:16.275Z,56.60
2018-09-25T12:31:50.589Z,55.20
2018-09-25T12:34:24.796Z,55.00
2018-09-25T12:36:59.118Z,56.10
2018-09-25T12:39:33.579Z,56.50
2018-09-25T12:42:07.867Z,56.30
2018-09-25T12:44:42.066Z,55.90
2018-09-25T12:47:16.346Z,56.70
2018-09-25T12:49:50.683Z,56.20
2018-09-25T12:52:25.595Z,56.50
2018-09-25T12:55:00.193Z,56.10
2018-09-25T12:57:35.722Z,54.30
2018-09-25T13:00:09.938Z,55.10
2018-09-25T13:02:44.709Z,53.90
2018-09-25T13:05:20.529Z,54.20
2018-09-25T13:07:54.903Z,54.00
2018-09-25T13:10:29.238Z,52.30
2018-09-25T13:13:03.778Z,53.40
2018-09-25T13:15:38.100Z,52.50
2018-09-25T13:18:12.373Z,52.60
2018-09-25T13:20:46.759Z,53.00
2018-09-25T13:23:21.166Z,51.00
2018-09-25T13:25:55.605Z,51.60
2018-09-25T13:28:29.790Z,52.70
2018-09-25T13:31:03.793Z,52.10
2018-09-25T13:33:37.948Z,51.60
2018-09-25T13:36:12.261Z,52.60
2018-09-25T13:38:46.520Z,51.30
2018-09-25T13:41:20.998Z,51.50
2018-09-25T13:43:55.200Z,51.90
2018-09-25T13:46:29.523Z,51.70
2018-09-25T13:49:05.234Z,52.50
2018-09-25T13:51:39.626Z,52.40
2018-09-25T13:54:13.954Z,51.90
2018-09-25T13:56:48.242Z,51.60
2018-09-25T13:59:22.530Z,52.40
2018-09-25T14:01:56.879Z,51.70
2018-09-25T14:04:31.150Z,51.90
2018-09-25T14:07:05.401Z,52.50
2018-09-25T14:09:46.327Z,53.50
2018-09-25T14:12:20.457Z,52.30
2018-09-25T14:14:55.031Z,52.00
2018-09-25T14:17:29.315Z,53.00
2018-09-25T14:20:03.641Z,54.60
2018-09-25T14:22:38.066Z,54.60
2018-09-25T14:25:12.294Z,56.10
2018-09-25T14:27:46.579Z,53.30
2018-09-25T14:30:21.322Z,52.70
2018-09-25T14:32:55.574Z,53.00
2018-09-25T14:35:29.740Z,52.80
2018-09-25T14:38:04.075Z,54.10
2018-09-25T14:40:38.289Z,53.40
2018-09-25T14:43:12.671Z,53.50
2018-09-25T14:45:47.887Z,53.90
2018-09-25T14:48:22.090Z,54.10
2018-09-25T14:50:56.433Z,54.10
2018-09-25T14:53:30.745Z,54.10
2018-09-25T14:56:05.225Z,54.80
2018-09-25T14:58:39.851Z,55.10
2018-09-25T15:01:14.973Z,55.20
2018-09-25T15:03:49.959Z,54.60
2018-09-25T15:06:24.309Z,54.60
2018-09-25T15:08:58.673Z,56.00
2018-09-25T15:11:33.122Z,56.40
2018-09-25T15:14:07.652Z,56.70
2018-09-25T15:16:41.802Z,55.80
2018-09-25T15:19:16.127Z,56.80
2018-09-25T15:21:50.543Z,57.30
2018-09-25T15:24:24.605Z,57.20
2018-09-25T15:26:58.854Z,57.30
2018-09-25T15:29:33.122Z,57.50
2018-09-25T15:32:07.426Z,57.20
2018-09-25T15:34:41.571Z,57.70
2018-09-25T15:37:16.146Z,57.90
2018-09-25T15:39:50.302Z,58.50
2018-09-25T15:42:24.592Z,58.80
2018-09-25T15:44:58.821Z,58.20
2018-09-25T15:47:33.235Z,58.60
2018-09-25T15:50:07.564Z,59.80
2018-09-25T15:52:41.542Z,58.00
2018-09-25T15:55:16.010Z,57.60
2018-09-25T15:57:50.274Z,57.90
2018-09-25T16:00:24.418Z,57.90
2018-09-25T16:02:58.721Z,58.00
2018-09-25T16:05:32.833Z,58.60
2018-09-25T16:08:07.474Z,58.60
2018-09-25T16:10:41.808Z,58.30
2018-09-25T16:13:16.036Z,59.10
2018-09-25T16:15:50.262Z,61.50
2018-09-25T16:18:24.481Z,59.20
2018-09-25T16:20:58.757Z,59.00
2018-09-25T16:23:33.225Z,59.50
2018-09-25T16:26:07.684Z,60.00
2018-09-25T16:28:41.967Z,59.30
2018-09-25T16:31:17.780Z,59.30
2018-09-25T16:33:51.905Z,59.70
2018-09-25T16:36:27.107Z,60.30
2018-09-25T16:39:01.272Z,60.40
2018-09-25T16:41:35.456Z,60.90
2018-09-25T16:44:09.858Z,60.60
2018-09-25T16:46:44.099Z,61.50
2018-09-25T16:49:18.429Z,61.70
2018-09-25T16:51:52.645Z,61.90
2018-09-25T16:54:26.758Z,62.20
2018-09-25T16:57:00.906Z,63.50
2018-09-25T16:59:35.325Z,63.30
2018-09-25T17:02:09.995Z,63.80
2018-09-25T17:04:45.344Z,64.50
2018-09-25T17:07:19.876Z,64.80
2018-09-25T17:09:53.864Z,66.10
2018-09-25T17:12:28.134Z,65.80
2018-09-25T17:15:02.494Z,66.50
2018-09-25T17:17:37.502Z,66.50
2018-09-25T17:20:13.114Z,66.90
2018-09-25T17:22:48.157Z,67.30
2018-09-25T17:25:22.358Z,67.60
2018-09-25T17:27:56.641Z,68.60
2018-09-25T17:30:30.626Z,69.00
2018-09-25T17:33:04.977Z,69.30
2018-09-25T17:35:40.535Z,69.50
2018-09-25T17:38:15.208Z,69.50
2018-09-25T17:40:49.318Z,70.50
2018-09-25T17:43:23.842Z,70.90
2018-09-25T17:45:58.110Z,71.00
2018-09-25T17:48:32.522Z,72.10
2018-09-25T17:51:06.925Z,75.00
2018-09-25T17:53:41.308Z,76.60
2018-09-25T17:56:15.595Z,76.80
2018-09-25T17:58:49.780Z,76.30
2018-09-25T18:01:24.164Z,76.10
2018-09-25T18:03:58.340Z,80.20
2018-09-25T18:06:32.401Z,82.30
2018-09-25T18:09:06.493Z,85.20
2018-09-25T18:11:40.710Z,87.30
2018-09-25T18:14:14.917Z,88.80
2018-09-25T18:16:49.281Z,90.00
2018-09-25T18:19:23.582Z,90.50
2018-09-25T18:21:57.726Z,90.90
2018-09-25T18:24:31.743Z,91.20
2018-09-25T18:27:07.848Z,91.40
2018-09-25T18:29:42.660Z,91.50
2018-09-25T18:32:16.829Z,91.80
2018-09-25T18:34:51.087Z,92.40
2018-09-25T18:37:26.004Z,92.60
2018-09-25T18:40:00.266Z,93.10
2018-09-25T18:42:34.722Z,93.00
2018-09-25T18:45:08.873Z,93.30
2018-09-25T18:47:43.137Z,93.60
2018-09-25T18:50:17.260Z,93.90
2018-09-25T18:52:51.947Z,94.20
2018-09-25T18:55:26.538Z,94.30
2018-09-25T18:58:00.878Z,93.60
2018-09-25T19:00:35.023Z,93.80
2018-09-25T19:03:09.206Z,93.70
2018-09-25T19:05:43.602Z,93.00
2018-09-25T19:08:17.696Z,92.60
2018-09-25T19:10:51.997Z,92.80
2018-09-25T19:13:26.146Z,93.50
2018-09-25T19:16:00.397Z,94.30
2018-09-25T19:18:34.634Z,94.60
2018-09-25T19:21:08.717Z,94.80
2018-09-25T19:23:43.088Z,94.00
2018-09-25T19:26:18.153Z,93.10
2018-09-25T19:28:52.771Z,92.90
2018-09-25T19:31:26.911Z,92.30
2018-09-25T19:34:01.146Z,92.00
2018-09-25T19:36:35.271Z,91.90
2018-09-25T19:39:11.307Z,91.70
2018-09-25T19:41:45.634Z,92.00
2018-09-25T19:44:19.885Z,92.00
2018-09-25T19:46:54.138Z,92.10
2018-09-25T19:49:28.510Z,92.20
2018-09-25T19:52:02.770Z,92.60
2018-09-25T19:54:37.022Z,92.70
2018-09-25T19:57:11.442Z,93.10
2018-09-25T19:59:45.791Z,93.10
2018-09-25T20:02:20.096Z,93.40
2018-09-25T20:04:54.837Z,93.60
2018-09-25T20:07:29.037Z,93.60
2018-09-25T20:10:03.218Z,94.00
2018-09-25T20:12:37.387Z,94.20
2018-09-25T20:15:11.625Z,94.20
2018-09-25T20:17:45.902Z,94.50
2018-09-25T20:20:20.159Z,94.50
2018-09-25T20:22:54.431Z,94.40
2018-09-25T20:25:28.477Z,94.50
2018-09-25T20:28:02.708Z,94.70
2018-09-25T20:30:36.878Z,94.50
2018-09-25T20:33:11.100Z,94.50
2018-09-25T20:35:45.262Z,94.10
2018-09-25T20:38:19.434Z,93.90
2018-09-25T20:40:53.520Z,93.90
2018-09-25T20:43:27.934Z,93.70
2018-09-25T20:46:02.035Z,93.80
2018-09-25T20:48:36.379Z,93.80
2018-09-25T20:51:10.584Z,93.60
2018-09-25T20:53:44.978Z,93.60
2018-09-25T20:56:19.155Z,93.70
2018-09-25T20:58:53.514Z,93.50
2018-09-25T21:01:27.660Z,93.50
2018-09-25T21:04:02.157Z,93.80
2018-09-25T21:06:36.397Z,93.20
2018-09-25T21:09:13.239Z,93.30
2018-09-25T21:11:48.021Z,93.00
2018-09-25T21:14:22.249Z,93.00
2018-09-25T21:16:56.469Z,93.20
2018-09-25T21:19:30.779Z,93.20
2018-09-25T21:22:04.840Z,93.30
2018-09-25T21:24:39.123Z,93.00
2018-09-25T21:27:13.810Z,92.90
2018-09-25T21:29:47.926Z,92.60
2018-09-25T21:32:22.031Z,92.60
2018-09-25T21:34:56.319Z,92.70
2018-09-25T21:37:30.525Z,92.80
2018-09-25T21:40:06.180Z,93.10
2018-09-25T21:42:40.423Z,93.00
2018-09-25T21:45:14.480Z,92.50
2018-09-25T21:47:48.666Z,92.90
2018-09-25T21:50:22.926Z,92.80
2018-09-25T21:52:57.121Z,92.90
2018-09-25T21:55:31.178Z,92.60
2018-09-25T21:58:05.802Z,92.40
2018-09-25T22:00:40.081Z,92.20
2018-09-25T22:03:14.521Z,91.90
2018-09-25T22:05:50.657Z,92.20
2018-09-25T22:08:25.391Z,92.30
2018-09-25T22:10:59.607Z,92.60
2018-09-25T22:13:33.814Z,92.80
2018-09-25T22:16:07.902Z,92.70
2018-09-25T22:18:42.109Z,92.70
2018-09-25T22:21:16.552Z,93.00
2018-09-25T22:23:50.701Z,93.20
2018-09-25T22:26:25.166Z,93.80
2018-09-25T22:28:59.368Z,93.00
2018-09-25T22:31:33.748Z,93.20
2018-09-25T22:34:09.727Z,92.90
2018-09-25T22:36:44.256Z,92.60
2018-09-25T22:39:18.548Z,92.30
2018-09-25T22:41:52.864Z,92.30
2018-09-25T22:44:26.960Z,92.80
2018-09-25T22:47:01.378Z,92.40
2018-09-25T22:49:35.540Z,92.30
2018-09-25T22:52:10.247Z,92.40
2018-09-25T22:54:44.390Z,92.30
2018-09-25T22:57:18.745Z,92.40
2018-09-25T22:59:53.002Z,92.00
2018-09-25T23:02:27.641Z,92.00
2018-09-25T23:05:01.871Z,91.80
2018-09-25T23:07:36.276Z,91.90
2018-09-25T23:10:10.383Z,92.10
2018-09-25T23:12:44.441Z,92.10
2018-09-25T23:15:18.722Z,92.30
2018-09-25T23:17:53.446Z,92.10
2018-09-25T23:20:27.717Z,92.20
2018-09-25T23:23:02.370Z,91.80
2018-09-25T23:25:36.413Z,91.70
2018-09-25T23:28:10.642Z,91.50
2018-09-25T23:30:45.097Z,91.50
2018-09-25T23:33:19.362Z,91.60
2018-09-25T23:35:53.646Z,91.40
2018-09-25T23:38:27.921Z,91.30
2018-09-25T23:41:06.259Z,91.10
2018-09-25T23:44:40.948Z,91.10
2018-09-25T23:47:18.157Z,90.80
2018-09-25T23:49:52.446Z,90.90
2018-09-25T23:52:25.109Z,90.60
2018-09-25T23:54:57.271Z,90.60
2018-09-25T23:57:31.407Z,90.80
